Time;durP1;ratioP1;P1;durP2;ratioP2;P2;SDS_P1;SDS_P2;PMS_P1;PMS_P2;Temp;Humidity;BMP_temperature;BMP_pressure;BME280_temperature;BME280_humidity;BME280_pressure;Samples;Min_cycle;Max_cycle;Signal;HPM_P1;HPM_P2
2023/09/03 00:01:37;;;;;;;13.35;10.20;;;13.90;99.90;;;;;;4959024;28;90237;-40
2023/09/03 00:04:03;;;;;;;11.65;8.85;;;13.90;99.90;;;;;;4955916;28;90206;-36
2023/09/03 00:06:29;;;;;;;11.02;9.30;;;13.90;99.90;;;;;;4958429;28;89809;-41
2023/09/03 00:08:54;;;;;;;10.00;9.00;;;13.80;99.90;;;;;;4957971;28;88578;-37
2023/09/03 00:11:20;;;;;;;11.13;9.63;;;13.80;99.90;;;;;;4959149;28;89652;-35
2023/09/03 00:13:45;;;;;;;10.65;9.60;;;13.70;99.90;;;;;;4956813;28;90065;-40
2023/09/03 00:16:11;;;;;;;13.52;10.60;;;13.70;99.90;;;;;;4958099;28;90208;-35
2023/09/03 00:18:37;;;;;;;14.32;11.38;;;13.70;99.90;;;;;;4958162;28;89106;-37
2023/09/03 00:21:04;;;;;;;12.30;10.07;;;13.70;99.90;;;;;;4958459;28;91058;-36
2023/09/03 00:23:31;;;;;;;12.48;9.95;;;13.60;99.90;;;;;;4956180;28;90484;-37
2023/09/03 00:25:58;;;;;;;12.00;10.75;;;13.60;99.90;;;;;;4958371;28;89644;-35
2023/09/03 00:28:24;;;;;;;13.73;11.10;;;13.50;99.90;;;;;;4956234;28;89367;-36
2023/09/03 00:31:11;;;;;;;14.77;9.85;;;13.50;99.90;;;;;;4957198;28;90102;-39
2023/09/03 00:33:37;;;;;;;34.65;23.40;;;13.50;99.90;;;;;;4956752;28;89353;-34
2023/09/03 00:36:05;;;;;;;29.23;20.05;;;13.50;99.90;;;;;;4958670;28;89511;-38
2023/09/03 00:38:31;;;;;;;14.25;10.52;;;13.50;99.90;;;;;;4939616;28;89552;-35
2023/09/03 00:40:57;;;;;;;17.73;10.98;;;13.50;99.90;;;;;;4951325;28;90291;-38
2023/09/03 00:43:23;;;;;;;10.57;9.45;;;13.40;99.90;;;;;;4944618;28;90047;-37
2023/09/03 00:45:50;;;;;;;11.00;9.73;;;13.40;99.90;;;;;;4958970;28;90087;-35
2023/09/03 00:48:23;;;;;;;11.00;9.90;;;13.40;99.90;;;;;;4957874;28;87613;-35
2023/09/03 00:50:50;;;;;;;15.20;10.27;;;13.40;99.90;;;;;;4958106;28;90122;-36
2023/09/03 00:53:18;;;;;;;13.57;12.07;;;13.30;99.90;;;;;;4957689;28;89685;-39
2023/09/03 00:55:45;;;;;;;12.15;10.05;;;13.30;99.90;;;;;;4957629;28;89511;-35
2023/09/03 00:58:11;;;;;;;10.68;9.63;;;13.30;99.90;;;;;;4958004;28;88729;-38
2023/09/03 01:00:37;;;;;;;12.23;10.90;;;13.30;99.90;;;;;;4958001;28;90012;-35
2023/09/03 01:03:04;;;;;;;12.65;9.52;;;13.20;99.90;;;;;;4957294;28;89085;-36
2023/09/03 01:05:30;;;;;;;11.88;8.48;;;13.20;99.90;;;;;;4957859;28;90219;-37
2023/09/03 01:07:58;;;;;;;13.68;9.75;;;13.20;99.90;;;;;;4946457;28;88236;-35
2023/09/03 01:10:34;;;;;;;13.18;11.15;;;13.10;99.90;;;;;;4956593;28;89676;-35
2023/09/03 01:13:13;;;;;;;12.02;10.82;;;13.10;99.90;;;;;;4947827;28;89497;-36
2023/09/03 01:15:45;;;;;;;11.65;8.95;;;13.10;99.90;;;;;;4960120;28;89166;-39
2023/09/03 01:18:20;;;;;;;12.18;9.90;;;13.10;99.90;;;;;;4949697;28;89628;-36
2023/09/03 01:21:12;;;;;;;9.95;8.98;;;13.10;99.90;;;;;;4949687;28;90464;-39
2023/09/03 01:24:12;;;;;;;12.95;10.25;;;13.10;99.90;;;;;;4961109;28;89967;-36
2023/09/03 01:26:50;;;;;;;13.73;10.85;;;13.10;99.90;;;;;;4960304;28;89891;-38
2023/09/03 01:29:17;;;;;;;13.73;11.95;;;13.00;99.90;;;;;;4950089;28;89275;-36
2023/09/03 01:31:44;;;;;;;17.33;10.80;;;13.10;99.90;;;;;;4942851;28;90562;-35
2023/09/03 01:34:11;;;;;;;11.82;10.73;;;13.10;99.90;;;;;;4950249;28;89577;-37
2023/09/03 01:36:37;;;;;;;12.48;11.13;;;13.10;99.90;;;;;;4960304;28;91155;-35
2023/09/03 01:39:03;;;;;;;15.25;11.30;;;13.10;99.90;;;;;;4960306;28;89293;-40
2023/09/03 01:41:34;;;;;;;12.93;11.52;;;13.10;99.90;;;;;;4960118;28;89409;-35
2023/09/03 01:44:00;;;;;;;12.85;11.38;;;13.10;99.90;;;;;;4960959;28;89184;-36
2023/09/03 01:47:18;;;;;;;13.00;11.50;;;13.10;99.90;;;;;;4959490;28;90395;-36
2023/09/03 01:49:54;;;;;;;10.70;9.68;;;13.10;99.90;;;;;;4887971;28;89907;-36
2023/09/03 01:52:37;;;;;;;15.15;12.18;;;13.00;99.90;;;;;;4960635;28;90003;-35
2023/09/03 01:55:07;;;;;;;12.60;11.18;;;13.10;99.90;;;;;;4948179;28;90389;-36
2023/09/03 01:57:55;;;;;;;13.55;10.95;;;13.10;99.90;;;;;;4958953;28;91162;-40
2023/09/03 02:00:21;;;;;;;11.93;10.68;;;13.10;99.90;;;;;;4941187;28;88029;-40
2023/09/03 02:02:48;;;;;;;11.43;10.32;;;13.00;99.90;;;;;;4953015;28;89614;-36
2023/09/03 02:05:14;;;;;;;12.10;10.93;;;13.00;99.90;;;;;;4951673;28;89398;-40
2023/09/03 02:07:41;;;;;;;12.55;11.25;;;13.00;99.90;;;;;;4947875;28;89802;-36
2023/09/03 02:10:07;;;;;;;14.40;11.05;;;13.00;99.90;;;;;;4949363;28;88805;-40
2023/09/03 02:12:32;;;;;;;14.15;12.65;;;13.00;99.90;;;;;;4958510;28;90622;-36
2023/09/03 02:14:58;;;;;;;11.48;10.02;;;12.90;99.90;;;;;;4949182;28;89427;-37
2023/09/03 02:17:26;;;;;;;11.93;10.63;;;12.90;99.90;;;;;;4957885;28;89310;-35
2023/09/03 02:19:53;;;;;;;14.00;10.90;;;12.90;99.90;;;;;;4959650;28;90637;-42
2023/09/03 02:22:19;;;;;;;11.88;10.68;;;12.90;99.90;;;;;;4958312;28;90033;-39
2023/09/03 02:24:45;;;;;;;12.07;10.27;;;13.00;99.90;;;;;;4960362;28;89817;-36
2023/09/03 02:27:11;;;;;;;13.45;11.82;;;12.90;99.90;;;;;;4952170;28;90215;-43
2023/09/03 02:29:41;;;;;;;11.23;10.05;;;12.90;99.90;;;;;;4941049;28;88779;-36
2023/09/03 02:32:07;;;;;;;12.90;10.68;;;12.90;99.90;;;;;;4940964;28;91318;-38
2023/09/03 02:34:34;;;;;;;10.93;9.50;;;12.90;99.90;;;;;;4952441;28;90526;-35
2023/09/03 02:36:59;;;;;;;11.98;10.77;;;12.90;99.90;;;;;;4943981;28;89477;-34
2023/09/03 02:39:25;;;;;;;11.00;9.93;;;12.90;99.90;;;;;;4951314;28;88110;-35
2023/09/03 02:41:51;;;;;;;12.25;10.50;;;12.90;99.90;;;;;;4955856;28;90188;-36
2023/09/03 02:44:17;;;;;;;12.07;10.68;;;12.90;99.90;;;;;;4941029;28;90629;-40
2023/09/03 02:46:43;;;;;;;10.85;9.27;;;12.80;99.90;;;;;;4942424;28;90816;-36
2023/09/03 02:49:10;;;;;;;9.52;8.65;;;12.80;99.90;;;;;;4942467;28;88757;-36
2023/09/03 02:51:37;;;;;;;19.02;9.63;;;12.70;99.90;;;;;;4954655;28;91360;-35
2023/09/03 02:54:02;;;;;;;10.70;7.72;;;12.70;99.90;;;;;;4941684;28;89816;-38
2023/09/03 02:56:29;;;;;;;11.18;7.53;;;12.70;99.90;;;;;;4943552;28;89772;-36
2023/09/03 02:58:55;;;;;;;8.38;7.43;;;12.70;99.90;;;;;;4954423;28;88693;-35
2023/09/03 03:01:20;;;;;;;12.98;9.63;;;12.60;99.90;;;;;;4947178;28;89370;-36
2023/09/03 03:03:47;;;;;;;9.98;8.80;;;12.70;99.90;;;;;;4959642;28;89149;-40
2023/09/03 03:06:13;;;;;;;13.88;9.45;;;12.70;99.90;;;;;;4959221;28;90354;-34
2023/09/03 03:08:39;;;;;;;14.63;9.18;;;12.60;99.90;;;;;;4959420;28;90247;-42
2023/09/03 03:11:08;;;;;;;9.23;8.32;;;12.60;99.90;;;;;;4959956;28;92080;-34
2023/09/03 03:13:35;;;;;;;10.00;9.02;;;12.60;99.90;;;;;;4960048;28;89406;-38
2023/09/03 03:16:08;;;;;;;11.40;9.00;;;12.60;99.90;;;;;;4959858;28;89964;-39
2023/09/03 03:18:35;;;;;;;8.90;7.90;;;12.60;99.90;;;;;;4958213;28;89665;-37
2023/09/03 03:21:08;;;;;;;14.60;9.55;;;12.50;99.90;;;;;;4959668;28;90084;-38
2023/09/03 03:23:35;;;;;;;11.88;10.68;;;12.60;99.90;;;;;;4959494;28;89356;-38
2023/09/03 03:26:02;;;;;;;11.35;10.00;;;12.50;99.90;;;;;;4959802;28;89398;-35
2023/09/03 03:28:32;;;;;;;11.90;9.77;;;12.50;99.90;;;;;;4957355;28;87571;-35
2023/09/03 03:31:18;;;;;;;12.18;10.95;;;12.50;99.90;;;;;;4958903;28;90350;-37
2023/09/03 03:33:45;;;;;;;11.57;9.77;;;12.50;99.90;;;;;;4946234;28;90747;-36
2023/09/03 03:36:13;;;;;;;13.25;10.85;;;12.50;99.90;;;;;;4959413;28;90676;-37
2023/09/03 03:38:39;;;;;;;13.00;10.88;;;12.50;99.90;;;;;;4957694;28;88616;-37
2023/09/03 03:41:17;;;;;;;17.10;10.82;;;12.40;99.90;;;;;;4958341;28;89793;-36
2023/09/03 03:43:45;;;;;;;13.35;11.88;;;12.40;99.90;;;;;;4958059;28;89381;-37
2023/09/03 03:46:14;;;;;;;11.68;9.73;;;12.30;99.90;;;;;;4956600;28;89209;-41
2023/09/03 03:48:41;;;;;;;13.52;10.57;;;12.30;99.90;;;;;;4960016;28;88403;-38
2023/09/03 03:51:07;;;;;;;12.30;9.80;;;12.30;99.90;;;;;;4955663;28;90474;-41
2023/09/03 03:53:33;;;;;;;11.77;10.02;;;12.30;99.90;;;;;;4958858;28;92181;-36
2023/09/03 03:55:59;;;;;;;11.75;9.80;;;12.20;99.90;;;;;;4958107;28;89864;-38
2023/09/03 03:58:27;;;;;;;12.80;10.70;;;12.30;99.90;;;;;;4958120;28;90311;-39
2023/09/03 04:00:52;;;;;;;14.13;10.60;;;12.20;99.90;;;;;;4955890;28;90531;-34
2023/09/03 04:03:18;;;;;;;13.68;11.73;;;12.20;99.90;;;;;;4958975;28;89814;-36
2023/09/03 04:05:44;;;;;;;14.43;11.15;;;12.20;99.90;;;;;;4956216;28;89464;-35
2023/09/03 04:08:09;;;;;;;13.32;10.93;;;12.20;99.90;;;;;;4939787;28;89913;-35
2023/09/03 04:10:35;;;;;;;14.15;11.20;;;12.20;99.90;;;;;;4940811;28;90719;-37
2023/09/03 04:13:01;;;;;;;16.77;12.43;;;12.20;99.90;;;;;;4958503;28;89557;-36
2023/09/03 04:15:26;;;;;;;12.45;11.20;;;12.20;99.90;;;;;;4958272;28;90022;-36
2023/09/03 04:17:52;;;;;;;12.82;9.77;;;12.20;99.90;;;;;;4958979;28;89065;-34
2023/09/03 04:20:17;;;;;;;15.68;11.93;;;12.10;99.90;;;;;;4959089;28;90297;-36
2023/09/03 04:22:43;;;;;;;14.55;12.02;;;12.00;99.90;;;;;;4957476;28;91333;-37
2023/09/03 04:25:09;;;;;;;13.23;10.48;;;12.00;99.90;;;;;;4958154;28;90118;-35
2023/09/03 04:27:34;;;;;;;13.23;11.82;;;12.00;99.90;;;;;;4958831;28;89654;-34
2023/09/03 04:30:00;;;;;;;15.88;11.05;;;11.90;99.90;;;;;;4957264;28;89615;-35
2023/09/03 04:32:25;;;;;;;11.35;9.93;;;12.00;99.90;;;;;;4958559;28;90231;-33
2023/09/03 04:34:51;;;;;;;11.80;10.60;;;12.00;99.90;;;;;;4945234;28;89732;-39
2023/09/03 04:37:17;;;;;;;15.25;11.35;;;11.90;99.90;;;;;;4956545;28;90204;-37
2023/09/03 04:39:42;;;;;;;12.80;11.48;;;12.00;99.90;;;;;;4956855;28;90162;-34
2023/09/03 04:42:08;;;;;;;15.60;11.55;;;12.00;99.90;;;;;;4957428;28;90001;-40
2023/09/03 04:44:37;;;;;;;16.02;11.65;;;11.90;99.90;;;;;;4956173;28;90703;-36
2023/09/03 04:47:05;;;;;;;17.67;12.40;;;12.00;99.90;;;;;;4957044;28;89326;-37
2023/09/03 04:49:31;;;;;;;14.05;10.25;;;11.90;99.90;;;;;;4956402;28;90148;-34
2023/09/03 04:51:57;;;;;;;11.05;9.75;;;11.90;99.90;;;;;;4961808;28;89590;-34
2023/09/03 04:54:22;;;;;;;10.95;9.85;;;11.90;99.90;;;;;;4959170;28;90825;-35
2023/09/03 04:56:48;;;;;;;11.65;9.13;;;11.90;99.90;;;;;;4961695;28;88006;-37
2023/09/03 04:59:13;;;;;;;15.27;9.27;;;11.90;99.90;;;;;;4959168;28;90156;-38
2023/09/03 05:01:41;;;;;;;11.07;9.43;;;11.90;99.90;;;;;;4960239;28;90537;-37
2023/09/03 05:04:06;;;;;;;8.93;8.05;;;11.80;99.90;;;;;;4947164;28;89643;-40
2023/09/03 05:06:32;;;;;;;7.95;6.47;;;11.70;99.90;;;;;;4943681;28;89435;-37
2023/09/03 05:08:57;;;;;;;7.35;6.60;;;11.70;99.90;;;;;;4942256;28;90395;-41
2023/09/03 05:11:23;;;;;;;8.70;7.78;;;11.70;99.90;;;;;;4951065;28;90532;-36
2023/09/03 05:13:49;;;;;;;8.57;6.45;;;11.70;99.90;;;;;;4946249;28;90127;-34
2023/09/03 05:16:14;;;;;;;9.00;8.10;;;11.70;99.90;;;;;;4943590;28;88717;-36
2023/09/03 05:18:40;;;;;;;12.57;9.38;;;11.70;99.90;;;;;;4957511;28;90537;-36
2023/09/03 05:21:10;;;;;;;12.00;10.65;;;11.80;99.90;;;;;;4952864;28;89666;-40
2023/09/03 05:23:36;;;;;;;12.27;10.85;;;11.80;99.90;;;;;;4942649;28;90216;-41
2023/09/03 05:26:02;;;;;;;14.15;9.60;;;11.90;99.90;;;;;;4952177;28;88821;-34
2023/09/03 05:28:29;;;;;;;7.72;6.93;;;11.90;99.90;;;;;;4945478;28;89171;-35
2023/09/03 05:30:54;;;;;;;8.52;7.57;;;11.70;99.90;;;;;;4945336;28;89517;-36
2023/09/03 05:33:20;;;;;;;7.32;6.20;;;11.60;99.90;;;;;;4951721;28;91253;-37
2023/09/03 05:35:45;;;;;;;9.05;7.60;;;11.70;99.90;;;;;;4953589;28;90441;-35
2023/09/03 05:38:11;;;;;;;9.30;8.23;;;11.70;99.90;;;;;;4941563;28;90610;-35
2023/09/03 05:40:37;;;;;;;10.80;7.95;;;11.80;99.90;;;;;;4949977;28;89719;-35
2023/09/03 05:43:02;;;;;;;8.65;7.53;;;11.80;99.90;;;;;;4948127;28;89516;-39
2023/09/03 05:45:28;;;;;;;9.82;8.48;;;11.90;99.90;;;;;;4953079;28;90224;-38
2023/09/03 05:47:54;;;;;;;9.38;8.23;;;12.00;99.90;;;;;;4944703;28;88697;-34
2023/09/03 05:50:19;;;;;;;8.88;7.57;;;11.90;99.90;;;;;;4952484;28;90343;-34
2023/09/03 05:52:45;;;;;;;8.98;7.60;;;11.80;99.90;;;;;;4942519;28;88258;-40
2023/09/03 05:55:11;;;;;;;11.27;8.23;;;11.90;99.90;;;;;;4942636;28;88721;-37
2023/09/03 05:57:37;;;;;;;11.32;8.82;;;12.00;99.90;;;;;;4941067;28;90455;-35
2023/09/03 06:00:05;;;;;;;11.50;8.80;;;12.10;99.90;;;;;;4941130;28;90255;-37
2023/09/03 06:02:32;;;;;;;9.50;8.27;;;12.10;99.90;;;;;;4953023;28;90235;-37
2023/09/03 06:04:58;;;;;;;9.20;8.30;;;12.20;99.90;;;;;;4943309;28;88576;-36
2023/09/03 06:07:24;;;;;;;9.90;8.90;;;12.20;99.90;;;;;;4941239;28;89496;-34
2023/09/03 06:09:49;;;;;;;11.25;9.02;;;12.30;99.90;;;;;;4952117;28;90127;-34
2023/09/03 06:12:15;;;;;;;10.77;9.55;;;12.50;99.90;;;;;;4945433;28;89513;-35
2023/09/03 06:14:41;;;;;;;11.57;9.25;;;12.50;99.90;;;;;;4942554;28;89168;-37
2023/09/03 06:17:07;;;;;;;10.98;9.73;;;12.60;99.90;;;;;;4943839;28;90385;-36
2023/09/03 06:19:32;;;;;;;10.63;9.13;;;12.70;99.90;;;;;;4942185;28;89861;-40
2023/09/03 06:21:58;;;;;;;11.07;9.65;;;12.80;99.90;;;;;;4942693;28;89765;-36
2023/09/03 06:24:24;;;;;;;13.48;12.07;;;12.90;99.90;;;;;;4941885;28;90549;-39
2023/09/03 06:26:50;;;;;;;12.52;11.23;;;13.00;99.90;;;;;;4961297;28;90678;-39
2023/09/03 06:29:15;;;;;;;16.40;11.23;;;13.10;99.90;;;;;;4949546;28;90157;-39
2023/09/03 06:31:41;;;;;;;12.25;10.73;;;13.30;99.90;;;;;;4943211;28;89597;-38
2023/09/03 06:34:06;;;;;;;14.68;10.63;;;13.30;99.90;;;;;;4949381;28;89227;-40
2023/09/03 06:36:32;;;;;;;13.18;11.77;;;13.40;99.90;;;;;;4945071;28;91320;-37
2023/09/03 06:38:58;;;;;;;13.80;10.68;;;13.50;99.90;;;;;;4940906;28;90647;-36
2023/09/03 06:41:23;;;;;;;12.95;11.63;;;13.60;99.90;;;;;;4940277;28;90347;-35
2023/09/03 06:43:49;;;;;;;12.27;10.48;;;13.70;99.90;;;;;;4949523;28;89728;-35
2023/09/03 06:46:15;;;;;;;19.02;12.20;;;13.80;99.90;;;;;;4957643;28;90320;-36
2023/09/03 06:48:40;;;;;;;13.02;11.80;;;14.00;99.90;;;;;;4949210;28;91022;-34
2023/09/03 06:51:06;;;;;;;11.88;10.10;;;14.10;99.90;;;;;;4949694;28;90090;-36
2023/09/03 06:53:32;;;;;;;10.02;8.63;;;14.20;99.90;;;;;;4953682;28;89356;-40
2023/09/03 06:55:57;;;;;;;10.43;9.43;;;14.30;99.90;;;;;;4945433;28;90303;-34
2023/09/03 06:58:23;;;;;;;10.00;9.10;;;14.30;99.90;;;;;;4943136;28;89528;-35
2023/09/03 07:00:49;;;;;;;11.57;10.48;;;14.50;99.90;;;;;;4945522;28;89746;-37
2023/09/03 07:03:15;;;;;;;11.18;10.07;;;14.60;99.90;;;;;;4951296;28;89658;-40
2023/09/03 07:05:41;;;;;;;12.95;9.60;;;14.80;99.90;;;;;;4941164;28;90342;-36
2023/09/03 07:08:07;;;;;;;9.35;8.45;;;14.90;99.90;;;;;;4941576;28;89646;-37
2023/09/03 07:10:33;;;;;;;10.77;9.60;;;15.10;99.90;;;;;;4941073;28;88489;-34
2023/09/03 07:12:59;;;;;;;9.07;8.20;;;15.20;99.90;;;;;;4949267;28;87995;-36
2023/09/03 07:15:25;;;;;;;10.18;8.15;;;15.50;99.90;;;;;;4944999;28;90743;-34
2023/09/03 07:17:50;;;;;;;8.20;7.28;;;15.80;99.90;;;;;;4941401;28;89215;-38
2023/09/03 07:20:16;;;;;;;8.85;7.75;;;16.00;99.90;;;;;;4942374;28;89341;-36
2023/09/03 07:22:42;;;;;;;8.27;7.55;;;16.10;99.90;;;;;;4943971;28;89932;-35
2023/09/03 07:25:09;;;;;;;8.77;6.72;;;16.20;99.90;;;;;;4948218;28;90979;-36
2023/09/03 07:27:36;;;;;;;7.77;5.17;;;16.50;99.90;;;;;;4953912;28;89439;-37
2023/09/03 07:30:01;;;;;;;6.18;5.57;;;16.70;99.90;;;;;;4939325;28;90011;-36
2023/09/03 07:32:27;;;;;;;7.47;5.05;;;16.90;99.90;;;;;;4955202;28;89679;-36
2023/09/03 07:34:53;;;;;;;6.38;5.32;;;17.20;99.90;;;;;;4953288;28;91613;-35
2023/09/03 07:37:19;;;;;;;4.22;3.72;;;17.30;99.90;;;;;;4952612;28;90806;-37
2023/09/03 07:39:46;;;;;;;6.75;5.03;;;17.40;99.90;;;;;;4954397;28;91192;-36
2023/09/03 07:42:11;;;;;;;5.22;4.80;;;17.60;99.90;;;;;;4954929;28;88186;-36
2023/09/03 07:44:37;;;;;;;7.85;6.15;;;17.70;99.90;;;;;;4954159;28;90247;-33
2023/09/03 07:47:03;;;;;;;8.55;6.75;;;18.00;99.90;;;;;;4954492;28;91250;-36
2023/09/03 07:49:29;;;;;;;9.18;6.40;;;18.20;99.90;;;;;;4954614;28;88229;-33
2023/09/03 07:51:54;;;;;;;6.43;5.82;;;18.40;99.90;;;;;;4956260;28;89089;-36
2023/09/03 07:54:20;;;;;;;8.02;5.72;;;18.70;99.90;;;;;;4955591;28;90180;-33
2023/09/03 07:56:45;;;;;;;7.75;6.20;;;18.70;99.90;;;;;;4954488;28;90511;-32
2023/09/03 07:59:11;;;;;;;5.35;4.85;;;18.90;99.90;;;;;;4954258;28;90051;-35
2023/09/03 08:01:37;;;;;;;6.60;4.60;;;19.00;99.90;;;;;;4954295;28;89940;-40
2023/09/03 08:04:03;;;;;;;4.95;4.53;;;19.10;99.90;;;;;;4942081;28;90801;-36
2023/09/03 08:06:29;;;;;;;6.20;5.57;;;19.00;99.90;;;;;;4935817;28;89495;-33
2023/09/03 08:08:55;;;;;;;8.85;4.90;;;18.90;99.90;;;;;;4950715;28;89760;-35
2023/09/03 08:11:21;;;;;;;5.70;4.32;;;19.00;99.90;;;;;;4955164;28;90417;-35
2023/09/03 08:13:51;;;;;;;5.47;5.07;;;19.00;99.90;;;;;;4953765;28;90316;-36
2023/09/03 08:16:17;;;;;;;4.63;4.20;;;19.10;99.90;;;;;;4955394;28;91050;-36
2023/09/03 08:18:42;;;;;;;6.30;4.22;;;19.20;99.90;;;;;;4957073;28;89740;-35
2023/09/03 08:21:08;;;;;;;6.32;3.83;;;19.10;99.90;;;;;;4946805;28;89375;-36
2023/09/03 08:23:33;;;;;;;5.63;3.83;;;19.00;99.90;;;;;;4953296;28;90349;-34
2023/09/03 08:25:59;;;;;;;5.55;4.63;;;19.20;99.90;;;;;;4954582;28;90411;-35
2023/09/03 08:28:25;;;;;;;6.75;5.57;;;19.00;99.90;;;;;;4953342;28;90111;-36
2023/09/03 08:30:50;;;;;;;4.10;3.70;;;18.90;99.90;;;;;;5018033;22;90698;-34
2023/09/03 08:33:16;;;;;;;5.00;3.92;;;19.20;99.90;;;;;;4977987;28;90189;-33
2023/09/03 08:35:41;;;;;;;5.20;3.38;;;19.30;99.90;;;;;;4994794;28;90013;-33
2023/09/03 08:38:07;;;;;;;7.25;3.60;;;19.60;99.90;;;;;;4994418;28;88802;-36
2023/09/03 08:40:33;;;;;;;3.25;3.03;;;19.70;99.90;;;;;;4995255;28;88889;-36
2023/09/03 08:43:02;;;;;;;3.75;3.05;;;19.80;99.90;;;;;;4995298;28;89969;-36
2023/09/03 08:45:33;;;;;;;3.42;3.13;;;19.90;99.90;;;;;;4994396;28;89834;-34
2023/09/03 08:47:58;;;;;;;4.22;2.70;;;19.60;99.90;;;;;;4982093;28;89564;-37
2023/09/03 08:50:25;;;;;;;3.38;3.13;;;19.80;99.90;;;;;;4994350;28;89035;-35
2023/09/03 08:52:52;;;;;;;4.07;3.67;;;19.80;99.90;;;;;;4994662;28;90078;-36
2023/09/03 08:55:18;;;;;;;4.50;3.97;;;20.00;99.90;;;;;;4995395;28;91041;-33
2023/09/03 08:57:44;;;;;;;4.72;3.15;;;20.20;99.90;;;;;;4994894;28;90305;-35
2023/09/03 09:00:10;;;;;;;3.67;3.35;;;20.40;99.90;;;;;;4995127;28;87524;-34
2023/09/03 09:02:37;;;;;;;6.80;3.13;;;20.50;99.90;;;;;;4978301;28;90277;-36
2023/09/03 09:05:09;;;;;;;7.53;3.83;;;20.50;99.90;;;;;;4986015;28;89840;-38
2023/09/03 09:07:34;;;;;;;2.97;2.72;;;20.20;99.90;;;;;;4994255;28;89698;-36
2023/09/03 09:10:06;;;;;;;3.95;3.08;;;20.20;99.90;;;;;;4995739;28;89901;-33
2023/09/03 09:12:37;;;;;;;3.00;2.55;;;20.30;99.90;;;;;;4994404;28;90087;-35
2023/09/03 09:15:04;;;;;;;4.00;3.03;;;20.50;99.90;;;;;;4994032;28;90594;-35
2023/09/03 09:17:43;;;;;;;7.32;3.03;;;20.50;99.90;;;;;;4994663;28;90552;-35
2023/09/03 09:20:12;;;;;;;3.63;2.95;;;20.40;99.90;;;;;;4993734;28;88254;-34
2023/09/03 09:22:55;;;;;;;3.40;3.05;;;20.60;99.90;;;;;;4983703;28;90476;-34
2023/09/03 09:25:23;;;;;;;4.10;3.10;;;20.70;99.90;;;;;;4993686;28;89680;-37
2023/09/03 09:27:51;;;;;;;3.67;3.00;;;20.10;99.90;;;;;;4994319;28;89039;-37
2023/09/03 09:30:26;;;;;;;4.72;2.88;;;20.20;99.90;;;;;;4990107;28;90343;-35
2023/09/03 09:33:06;;;;;;;4.03;3.63;;;20.40;99.90;;;;;;4988751;28;90072;-35
2023/09/03 09:35:33;;;;;;;3.20;2.78;;;20.50;99.90;;;;;;4983990;28;90857;-33
2023/09/03 09:38:06;;;;;;;3.42;2.80;;;20.70;99.90;;;;;;4998189;28;89846;-36
2023/09/03 09:40:32;;;;;;;5.43;3.72;;;20.90;99.90;;;;;;4997578;28;88395;-33
2023/09/03 09:43:00;;;;;;;3.53;2.95;;;20.90;99.90;;;;;;4997049;28;89976;-35
2023/09/03 09:45:27;;;;;;;3.17;2.90;;;21.00;99.90;;;;;;4998139;28;89214;-35
2023/09/03 09:48:09;;;;;;;4.88;2.63;;;21.00;99.90;;;;;;4997269;28;88992;-38
2023/09/03 09:50:37;;;;;;;6.13;2.85;;;21.10;99.90;;;;;;4996877;28;88556;-35
2023/09/03 09:53:03;;;;;;;2.75;2.47;;;21.10;99.90;;;;;;4980666;28;90992;-37
2023/09/03 09:55:32;;;;;;;3.83;3.35;;;21.20;99.90;;;;;;4998623;28;90626;-36
2023/09/03 09:57:58;;;;;;;3.70;2.40;;;21.20;99.90;;;;;;4978351;28;90363;-36
2023/09/03 10:00:35;;;;;;;2.58;2.38;;;21.20;99.90;;;;;;4997988;28;90619;-37
2023/09/03 10:03:02;;;;;;;3.38;2.15;;;21.30;99.90;;;;;;4984781;28;90573;-36
2023/09/03 10:05:28;;;;;;;2.45;2.25;;;21.50;99.90;;;;;;4996827;28;89343;-37
2023/09/03 10:07:54;;;;;;;3.58;2.20;;;21.60;99.90;;;;;;4997673;28;92151;-37
2023/09/03 10:10:20;;;;;;;4.35;2.53;;;21.60;99.90;;;;;;4998116;28;90117;-36
2023/09/03 10:12:46;;;;;;;2.53;2.33;;;21.60;99.90;;;;;;4997358;28;90919;-37
2023/09/03 10:15:15;;;;;;;3.88;2.47;;;21.70;99.90;;;;;;4997228;28;90127;-36
2023/09/03 10:17:42;;;;;;;2.45;2.25;;;21.80;99.90;;;;;;4998092;28;89418;-34
2023/09/03 10:20:17;;;;;;;2.85;1.90;;;21.60;99.90;;;;;;4996114;28;88770;-35
2023/09/03 10:22:45;;;;;;;2.95;2.20;;;21.60;99.90;;;;;;4987154;28;90547;-37
2023/09/03 10:25:19;;;;;;;3.25;2.50;;;21.60;99.90;;;;;;4997480;28;90192;-35
2023/09/03 10:27:52;;;;;;;3.92;2.80;;;21.50;99.90;;;;;;4997384;28;89544;-32
2023/09/03 10:30:25;;;;;;;3.35;2.33;;;21.60;99.90;;;;;;4996631;28;88997;-32
2023/09/03 10:32:53;;;;;;;2.78;2.58;;;21.70;99.90;;;;;;4997965;28;90411;-34
2023/09/03 10:35:18;;;;;;;2.83;2.60;;;21.80;99.90;;;;;;4995447;28;91246;-35
2023/09/03 10:37:44;;;;;;;3.88;2.50;;;21.90;99.90;;;;;;4997634;28;89529;-37
2023/09/03 10:40:29;;;;;;;2.47;2.28;;;21.70;99.90;;;;;;4997675;28;89245;-36
2023/09/03 10:43:14;;;;;;;2.42;2.00;;;21.70;99.90;;;;;;4996833;28;89857;-37
2023/09/03 10:46:00;;;;;;;1.50;1.40;;;22.00;99.90;;;;;;4997990;28;89672;-34
2023/09/03 10:48:27;;;;;;;3.40;1.92;;;22.00;99.90;;;;;;4991156;28;90116;-35
2023/09/03 10:50:53;;;;;;;1.88;1.77;;;21.80;99.90;;;;;;4995856;28;88761;-36
2023/09/03 10:53:43;;;;;;;2.85;2.30;;;21.80;99.90;;;;;;4997619;28;90913;-35
2023/09/03 10:56:17;;;;;;;3.47;2.40;;;21.90;99.90;;;;;;4995880;28;90761;-36
2023/09/03 10:58:59;;;;;;;3.38;2.28;;;22.00;99.90;;;;;;4996076;28;90747;-36
2023/09/03 11:01:34;;;;;;;2.35;2.15;;;22.00;99.90;;;;;;4991079;28;88877;-36
2023/09/03 11:04:01;;;;;;;2.67;2.00;;;22.10;99.90;;;;;;4990716;28;90786;-32
2023/09/03 11:06:32;;;;;;;2.57;2.37;;;22.10;99.90;;;;;;4996276;28;90108;-35
2023/09/03 11:09:02;;;;;;;2.65;2.05;;;22.10;99.90;;;;;;4996278;28;89591;-34
2023/09/03 11:11:33;;;;;;;3.03;2.72;;;22.20;99.90;;;;;;4994585;28;89811;-35
2023/09/03 11:14:00;;;;;;;2.65;2.45;;;22.20;99.90;;;;;;4996893;28;89950;-37
2023/09/03 11:16:36;;;;;;;5.63;2.15;;;22.20;99.90;;;;;;4996918;28;89752;-36
2023/09/03 11:19:04;;;;;;;4.55;2.63;;;22.20;99.90;;;;;;4996085;28;89485;-35
2023/09/03 11:21:30;;;;;;;2.60;2.40;;;22.30;99.90;;;;;;4997203;28;90713;-33
2023/09/03 11:24:16;;;;;;;2.17;1.98;;;22.40;99.90;;;;;;4996834;28;90165;-37
2023/09/03 11:26:42;;;;;;;4.38;2.58;;;22.20;99.90;;;;;;4995897;28;89745;-36
2023/09/03 11:29:24;;;;;;;2.47;2.30;;;22.20;99.90;;;;;;4997058;28;89807;-35
2023/09/03 11:31:51;;;;;;;3.03;2.20;;;22.10;99.90;;;;;;4997312;28;90141;-35
2023/09/03 11:34:22;;;;;;;2.90;1.98;;;22.20;99.90;;;;;;4996107;28;91661;-37
2023/09/03 11:36:49;;;;;;;3.67;2.53;;;22.30;99.90;;;;;;4996731;28;89601;-34
2023/09/03 11:39:16;;;;;;;5.15;2.50;;;22.20;99.90;;;;;;4990351;28;89729;-36
2023/09/03 11:41:48;;;;;;;2.23;2.03;;;22.30;99.90;;;;;;4995575;28;88656;-36
2023/09/03 11:44:19;;;;;;;1.63;1.52;;;22.20;99.90;;;;;;4995777;28;88891;-36
2023/09/03 11:47:03;;;;;;;2.75;2.25;;;21.90;99.90;;;;;;4995493;28;90962;-34
2023/09/03 11:49:29;;;;;;;3.85;2.55;;;21.80;99.90;;;;;;4994312;28;90736;-34
2023/09/03 11:52:13;;;;;;;8.27;2.35;;;21.60;99.90;;;;;;4997086;28;89957;-36
2023/09/03 11:54:39;;;;;;;2.70;2.50;;;21.60;99.90;;;;;;4984224;28;91023;-34
2023/09/03 11:57:07;;;;;;;2.35;2.15;;;21.60;99.90;;;;;;4995388;28;89974;-38
2023/09/03 11:59:33;;;;;;;;;;;21.50;99.90;;;;;;4997264;28;88522;-37
2023/09/03 12:01:59;;;;;;;2.70;2.40;;;21.60;99.90;;;;;;4986259;28;88475;-37
2023/09/03 12:04:25;;;;;;;2.92;2.08;;;21.50;99.90;;;;;;4993458;28;90403;-38
2023/09/03 12:06:51;;;;;;;5.18;1.90;;;21.60;99.90;;;;;;4995824;28;90843;-36
2023/09/03 12:09:23;;;;;;;1.75;1.65;;;21.50;99.90;;;;;;4996151;28;89615;-37
2023/09/03 12:11:49;;;;;;;2.97;2.22;;;21.60;99.90;;;;;;4995672;28;88910;-36
2023/09/03 12:14:31;;;;;;;2.47;2.28;;;21.50;99.90;;;;;;4989609;28;90550;-38
2023/09/03 12:16:57;;;;;;;4.13;2.65;;;21.50;99.90;;;;;;4977621;28;89364;-37
2023/09/03 12:19:22;;;;;;;4.15;2.17;;;21.40;99.90;;;;;;4994277;28;89041;-38
2023/09/03 12:21:52;;;;;;;2.22;2.03;;;21.50;99.90;;;;;;4983441;28;89036;-36
2023/09/03 12:24:26;;;;;;;2.67;2.05;;;21.40;99.90;;;;;;4996416;28;90393;-34
2023/09/03 12:27:03;;;;;;;2.13;1.65;;;21.40;99.90;;;;;;4994764;28;89973;-36
2023/09/03 12:29:36;;;;;;;2.28;1.67;;;21.40;99.90;;;;;;4996605;28;90081;-35
2023/09/03 12:32:03;;;;;;;1.92;1.83;;;21.60;99.90;;;;;;4995458;28;88509;-37
2023/09/03 12:34:39;;;;;;;4.80;1.88;;;21.70;99.90;;;;;;4995765;28;89703;-37
2023/09/03 12:37:06;;;;;;;1.65;1.55;;;21.80;99.90;;;;;;4983629;28;91839;-37
2023/09/03 12:39:34;;;;;;;1.40;1.30;;;21.60;99.90;;;;;;4995467;28;92180;-38
2023/09/03 12:42:00;;;;;;;3.88;2.35;;;21.60;99.90;;;;;;4995294;28;88346;-36
2023/09/03 12:44:27;;;;;;;1.58;1.48;;;21.70;99.90;;;;;;4995984;28;90882;-37